Time;durP1;ratioP1;P1;durP2;ratioP2;P2;SDS_P1;SDS_P2;PMS_P1;PMS_P2;Temp;Humidity;BMP_temperature;BMP_pressure;BME280_temperature;BME280_humidity;BME280_pressure;Samples;Min_cycle;Max_cycle;Signal;HPM_P1;HPM_P2
2023/03/23 00:07:33;;;;;;;1.20;0.30;;;;;;;16.91;43.04;99467.03;12970428;22;19926;-96
2023/03/23 00:12:35;;;;;;;1.75;0.20;;;;;;;16.91;43.13;99467.03;12893045;22;20019;-95
2023/03/23 00:17:40;;;;;;;0.30;0.10;;;;;;;16.93;43.12;99471.13;12930660;22;20008;-95
2023/03/23 00:22:41;;;;;;;0.50;0.20;;;;;;;16.97;43.16;99468.78;12892650;22;20020;-73
2023/03/23 00:27:41;;;;;;;0.93;0.20;;;;;;;17.03;42.97;99468.63;12904611;23;20016;-74
2023/03/23 00:32:41;;;;;;;4.40;0.40;;;;;;;17.01;43.25;99475.38;12879122;23;20131;-73
2023/03/23 00:37:43;;;;;;;2.17;1.17;;;;;;;17.02;43.43;99463.44;12883380;23;20028;-73
2023/03/23 00:42:45;;;;;;;1.63;0.20;;;;;;;16.99;43.33;99458.50;12875636;22;20387;-73
2023/03/23 00:53:02;;;;;;;0.30;0.13;;;;;;;16.96;43.63;99448.09;12928702;22;20085;-75
2023/03/23 00:58:03;;;;;;;1.30;0.20;;;;;;;16.90;43.84;99436.31;12913267;23;20024;-75
2023/03/23 01:03:04;;;;;;;0.30;0.20;;;;;;;16.91;44.17;99437.97;12917955;23;20035;-68
2023/03/23 01:23:55;;;;;;;0.50;0.20;;;;;;;16.84;44.37;99427.25;12890477;22;20337;-73
2023/03/23 01:34:12;;;;;;;1.97;0.40;;;;;;;16.83;44.52;99438.34;12991741;22;20304;-66
2023/03/23 01:50:14;;;;;;;0.45;0.30;;;;;;;16.61;45.98;99411.00;12939183;22;20060;-67
2023/03/23 02:05:50;;;;;;;1.13;0.17;;;;;;;16.13;47.14;99412.09;12898602;22;20026;-67
2023/03/23 02:22:25;;;;;;;;;;;;;;;16.00;47.40;99415.88;12927050;22;20014;-68
2023/03/23 02:27:42;;;;;;;0.50;0.28;;;;;;;15.97;47.59;99406.28;12930527;22;19914;-68
2023/03/23 02:38:02;;;;;;;1.17;0.20;;;;;;;15.67;48.71;99376.53;12982832;22;20023;-67
2023/03/23 02:43:06;;;;;;;0.30;0.20;;;;;;;15.67;48.84;99382.78;12899879;22;20019;-71
2023/03/23 02:48:09;;;;;;;0.90;0.20;;;;;;;15.75;48.46;99387.06;12912068;23;20050;-69
2023/03/23 03:14:29;;;;;;;1.73;0.32;;;;;;;14.86;53.46;99378.78;12888614;22;20031;-70
2023/03/23 03:19:35;;;;;;;0.68;0.30;;;;;;;14.72;54.37;99366.47;12860201;22;20039;-65
2023/03/23 03:24:37;;;;;;;0.80;0.20;;;;;;;14.46;55.42;99371.13;12845494;23;20345;-70
2023/03/23 03:29:41;;;;;;;1.27;0.40;;;;;;;14.22;56.78;99370.13;12896227;23;20035;-70
2023/03/23 03:34:41;;;;;;;0.73;0.30;;;;;;;14.08;57.63;99372.97;12859488;23;20027;-71
2023/03/23 03:39:41;;;;;;;1.93;0.27;;;;;;;14.13;57.45;99374.16;12883593;23;20028;-67
2023/03/23 03:44:42;;;;;;;0.90;0.30;;;;;;;14.12;57.35;99373.34;12864016;23;20243;-73
2023/03/23 03:49:42;;;;;;;0.77;0.30;;;;;;;14.14;57.84;99392.88;12857548;23;20255;-71
2023/03/23 03:54:43;;;;;;;1.92;0.30;;;;;;;14.22;57.82;99375.53;12910732;23;20338;-72
2023/03/23 03:59:43;;;;;;;1.35;0.30;;;;;;;14.24;58.10;99384.25;12860469;23;20055;-67
2023/03/23 04:04:44;;;;;;;1.38;0.30;;;;;;;14.40;57.50;99382.84;12859466;23;20024;-71
2023/03/23 04:09:48;;;;;;;0.63;0.20;;;;;;;14.47;57.22;99372.75;12857529;23;20027;-71
2023/03/23 04:14:48;;;;;;;1.83;0.30;;;;;;;14.63;56.86;99371.34;12918086;23;20267;-69
2023/03/23 04:19:49;;;;;;;1.23;0.30;;;;;;;14.76;56.50;99371.19;12906139;22;20094;-72
2023/03/23 04:24:51;;;;;;;0.75;0.47;;;;;;;14.84;56.29;99380.88;12902795;23;20334;-71
2023/03/23 04:29:51;;;;;;;0.30;0.20;;;;;;;14.83;56.44;99384.63;12894741;22;20054;-69
2023/03/23 04:40:16;;;;;;;1.10;0.28;;;;;;;14.89;56.62;99399.97;12906715;22;20232;-72
2023/03/23 04:45:21;;;;;;;1.33;0.40;;;;;;;14.91;56.80;99399.72;12920348;23;20028;-64
2023/03/23 04:55:38;;;;;;;2.50;0.50;;;;;;;14.93;57.00;99392.19;12924167;22;20542;-65
2023/03/23 05:00:39;;;;;;;0.98;0.35;;;;;;;14.86;57.09;99395.81;12889779;22;20019;-71
2023/03/23 05:05:40;;;;;;;2.55;0.40;;;;;;;14.84;57.03;99395.22;12974503;22;20043;-67
2023/03/23 05:10:40;;;;;;;0.93;0.30;;;;;;;14.91;56.75;99391.59;12980930;22;20039;-72
2023/03/23 05:15:41;;;;;;;0.95;0.30;;;;;;;14.97;56.72;99394.25;12918952;22;20089;-66
2023/03/23 05:20:42;;;;;;;1.95;0.40;;;;;;;14.99;56.71;99404.84;12904270;22;20024;-66
2023/03/23 05:25:43;;;;;;;2.45;0.40;;;;;;;15.01;56.91;99410.84;12881077;23;20114;-69
2023/03/23 05:30:44;;;;;;;2.20;0.40;;;;;;;14.95;57.15;99400.91;12880493;23;20031;-68
2023/03/23 05:35:47;;;;;;;0.93;0.30;;;;;;;14.96;57.18;99391.75;12880241;23;20262;-68
2023/03/23 05:40:48;;;;;;;1.40;0.30;;;;;;;15.06;57.06;99390.13;12883114;23;20026;-68
2023/03/23 05:45:49;;;;;;;2.25;0.45;;;;;;;15.01;57.26;99397.31;12874905;23;20027;-68
2023/03/23 05:50:50;;;;;;;0.52;0.35;;;;;;;14.90;57.77;99396.19;12848874;23;20335;-68
2023/03/23 05:55:51;;;;;;;1.63;0.50;;;;;;;14.69;58.74;99408.31;12880716;23;20028;-67
2023/03/23 06:00:51;;;;;;;0.80;0.40;;;;;;;14.57;59.75;99412.81;12852541;23;20086;-68
2023/03/23 06:05:52;;;;;;;1.07;0.70;;;;;;;14.60;59.31;99421.31;12914759;23;20024;-69
2023/03/23 06:10:52;;;;;;;1.95;0.47;;;;;;;14.64;59.82;99419.00;12919048;23;20640;-68
2023/03/23 06:15:57;;;;;;;1.37;0.40;;;;;;;14.66;59.78;99427.72;12881463;23;20078;-69
2023/03/23 06:20:57;;;;;;;2.67;0.40;;;;;;;14.73;59.92;99436.59;12856563;22;20024;-70
2023/03/23 06:26:02;;;;;;;1.77;0.40;;;;;;;14.74;59.99;99437.41;12882580;23;20098;-68
2023/03/23 06:31:06;;;;;;;2.10;0.60;;;;;;;14.46;61.32;99430.59;12881407;23;20266;-66
2023/03/23 06:36:06;;;;;;;0.80;0.77;;;;;;;14.46;61.56;99436.00;12914596;23;20544;-67
2023/03/23 06:41:08;;;;;;;1.13;0.45;;;;;;;14.44;61.88;99438.94;12880956;23;20028;-67
2023/03/23 06:46:09;;;;;;;0.30;0.30;;;;;;;14.60;61.39;99434.03;12878387;23;20338;-67
2023/03/23 06:51:09;;;;;;;0.98;0.40;;;;;;;14.70;61.48;99444.31;12912451;23;20036;-67
2023/03/23 06:56:11;;;;;;;4.25;0.50;;;;;;;14.77;61.48;99448.59;12917311;23;20020;-68
2023/03/23 07:01:12;;;;;;;1.85;0.93;;;;;;;14.88;61.40;99449.72;12881048;23;20696;-69
2023/03/23 07:06:12;;;;;;;0.75;0.38;;;;;;;15.00;61.23;99456.00;12881904;23;20034;-67
2023/03/23 07:11:13;;;;;;;0.55;0.50;;;;;;;14.98;61.30;99451.88;12893814;23;20024;-69
2023/03/23 07:16:13;;;;;;;2.45;0.60;;;;;;;14.88;61.99;99452.44;12865274;23;20035;-69
2023/03/23 07:21:14;;;;;;;2.43;0.50;;;;;;;14.66;62.84;99474.50;12866103;22;20361;-68
2023/03/23 07:26:14;;;;;;;1.27;0.50;;;;;;;14.59;63.20;99459.41;12883275;23;20763;-68
2023/03/23 07:31:14;;;;;;;1.13;0.50;;;;;;;14.63;63.00;99460.59;12881774;23;20641;-68
2023/03/23 07:36:15;;;;;;;1.50;0.77;;;;;;;14.68;62.98;99466.19;12877880;23;20843;-70
2023/03/23 07:41:15;;;;;;;0.87;0.50;;;;;;;14.66;63.06;99460.16;12879740;23;20103;-72
2023/03/23 07:46:15;;;;;;;0.90;0.50;;;;;;;14.77;62.85;99472.97;12877391;23;20254;-68
2023/03/23 07:51:16;;;;;;;2.10;0.60;;;;;;;14.86;62.88;99477.00;12910158;23;20279;-68
2023/03/23 07:56:19;;;;;;;1.63;0.73;;;;;;;14.96;62.72;99473.75;12915631;23;20179;-67
2023/03/23 08:01:19;;;;;;;2.78;0.80;;;;;;;15.00;62.83;99479.56;12878286;23;20259;-69
2023/03/23 08:06:21;;;;;;;2.17;0.63;;;;;;;15.05;62.70;99477.00;12879324;23;20028;-71
2023/03/23 08:11:22;;;;;;;1.13;0.70;;;;;;;15.07;62.74;99480.31;12918748;23;20097;-70
2023/03/23 08:16:22;;;;;;;3.10;0.70;;;;;;;15.26;62.40;99489.22;12883860;23;20024;-69
2023/03/23 08:21:23;;;;;;;2.25;0.63;;;;;;;15.18;62.79;99498.47;12914880;22;20024;-68
2023/03/23 08:26:23;;;;;;;3.70;0.73;;;;;;;15.28;62.64;99495.22;12921117;23;20389;-67
2023/03/23 08:31:24;;;;;;;4.63;0.70;;;;;;;15.24;62.60;99494.03;12884595;23;20032;-68
2023/03/23 08:36:24;;;;;;;1.83;0.93;;;;;;;15.29;62.67;99505.03;12915852;23;20183;-68
2023/03/23 08:41:25;;;;;;;3.03;0.80;;;;;;;15.40;62.39;99504.25;12859844;23;20052;-68
2023/03/23 08:46:26;;;;;;;1.10;0.50;;;;;;;15.48;62.26;99516.63;12923783;23;20765;-68
2023/03/23 08:51:26;;;;;;;2.30;0.60;;;;;;;15.55;61.86;99519.28;12883808;23;20031;-68
2023/03/23 08:56:27;;;;;;;1.50;0.57;;;;;;;15.56;61.99;99529.88;12892905;23;20020;-67
2023/03/23 09:01:27;;;;;;;3.20;0.80;;;;;;;15.64;61.57;99524.16;12905476;23;20404;-67
2023/03/23 09:06:27;;;;;;;1.73;0.53;;;;;;;15.73;61.27;99511.13;12894634;23;20020;-67
2023/03/23 09:11:28;;;;;;;1.13;0.57;;;;;;;15.75;61.04;99510.91;12877025;23;20028;-68
2023/03/23 09:16:29;;;;;;;2.17;0.73;;;;;;;15.76;60.91;99507.16;12896287;23;20024;-68
2023/03/23 09:21:29;;;;;;;2.90;0.60;;;;;;;15.90;60.48;99500.47;12868783;22;20259;-67
2023/03/23 09:26:30;;;;;;;2.30;0.50;;;;;;;16.09;60.24;99509.31;12867061;23;20049;-68
2023/03/23 09:31:31;;;;;;;1.55;0.50;;;;;;;16.15;60.02;99518.41;12907355;23;20338;-69
2023/03/23 09:36:32;;;;;;;1.20;0.50;;;;;;;16.31;59.54;99520.47;12917378;23;20054;-67
2023/03/23 09:41:49;;;;;;;1.73;0.70;;;;;;;16.39;59.40;99517.41;12867806;23;20032;-69
2023/03/23 09:46:57;;;;;;;1.63;0.52;;;;;;;16.45;59.12;99521.88;12922312;23;20078;-69
2023/03/23 09:52:11;;;;;;;3.22;0.63;;;;;;;16.68;58.58;99522.13;12884886;23;20522;-68
2023/03/23 09:57:18;;;;;;;3.10;0.82;;;;;;;16.85;58.41;99515.75;12865965;23;20028;-68
2023/03/23 10:02:28;;;;;;;1.55;0.50;;;;;;;16.76;58.92;99528.00;12882031;23;20024;-69
2023/03/23 10:07:28;;;;;;;1.40;0.40;;;;;;;16.62;59.29;99532.03;12884689;23;20020;-68
2023/03/23 10:12:36;;;;;;;1.20;0.45;;;;;;;16.44;59.20;99531.06;12858141;23;20024;-68
2023/03/23 10:17:46;;;;;;;0.98;0.50;;;;;;;16.39;59.48;99560.81;12884267;23;20078;-68
2023/03/23 10:23:18;;;;;;;0.70;0.22;;;;;;;16.34;58.57;99557.94;12921396;22;20483;-69
2023/03/23 10:28:21;;;;;;;0.60;0.20;;;;;;;16.42;57.49;99568.47;12858807;23;20028;-68
2023/03/23 10:33:34;;;;;;;2.28;0.30;;;;;;;16.46;56.52;99572.34;12912330;23;20028;-69
2023/03/23 10:38:53;;;;;;;1.88;0.82;;;;;;;16.60;56.59;99564.81;12909909;23;20031;-68
2023/03/23 10:43:54;;;;;;;1.05;0.40;;;;;;;16.67;56.48;99562.00;12879895;23;20364;-68
2023/03/23 10:48:58;;;;;;;0.68;0.20;;;;;;;16.83;55.94;99561.31;12883715;23;20020;-69
2023/03/23 10:54:02;;;;;;;0.80;0.20;;;;;;;17.00;55.61;99566.03;12881569;23;20027;-69
2023/03/23 10:59:40;;;;;;;0.50;0.50;;;;;;;17.31;54.97;99555.84;12918139;23;20376;-68
2023/03/23 11:04:46;;;;;;;0.22;0.20;;;;;;;17.39;54.35;99552.72;12800735;23;20016;-69
2023/03/23 11:10:03;;;;;;;3.80;0.30;;;;;;;17.45;53.86;99546.34;12911507;23;20028;-68
2023/03/23 11:15:20;;;;;;;2.08;0.30;;;;;;;17.39;53.68;99550.00;12913618;23;20028;-67
2023/03/23 11:20:21;;;;;;;3.60;0.40;;;;;;;17.36;53.80;99554.03;12916957;22;20051;-68
2023/03/23 11:25:21;;;;;;;2.40;0.30;;;;;;;17.39;53.53;99563.59;12908133;23;20020;-68
2023/03/23 11:30:22;;;;;;;2.58;0.30;;;;;;;17.43;53.84;99560.16;12912183;23;20035;-68
2023/03/23 11:35:27;;;;;;;0.60;0.40;;;;;;;17.58;54.00;99565.09;12917138;23;20449;-68
2023/03/23 11:40:31;;;;;;;0.40;0.30;;;;;;;17.82;53.83;99551.41;12920171;23;20024;-67
2023/03/23 11:45:40;;;;;;;1.23;0.40;;;;;;;17.85;53.79;99561.81;12909250;23;20111;-68
2023/03/23 11:50:52;;;;;;;1.80;0.38;;;;;;;18.13;53.30;99576.47;12915873;23;20028;-68
2023/03/23 11:56:11;;;;;;;3.22;0.68;;;;;;;18.17;52.88;99573.00;12918811;23;20020;-69
2023/03/23 12:01:46;;;;;;;1.48;0.30;;;;;;;18.42;52.11;99561.75;12906567;23;20028;-70
2023/03/23 12:07:07;;;;;;;2.20;0.35;;;;;;;18.20;51.83;99555.38;12737091;23;20039;-62
2023/03/23 12:12:38;;;;;;;0.40;0.20;;;;;;;17.98;52.01;99558.78;12899478;23;20170;-64
2023/03/23 12:17:55;;;;;;;0.75;0.20;;;;;;;17.74;52.03;99557.22;12924132;23;20072;-65
2023/03/23 12:23:07;;;;;;;2.72;0.20;;;;;;;17.68;52.23;99539.19;12893872;23;20028;-64
2023/03/23 12:28:30;;;;;;;0.52;0.20;;;;;;;17.62;52.24;99541.78;12897629;23;20024;-64
2023/03/23 12:33:46;;;;;;;0.82;0.15;;;;;;;17.40;52.71;99533.47;12901118;23;20092;-64
2023/03/23 12:39:05;;;;;;;3.63;0.75;;;;;;;17.44;52.80;99517.53;12901418;23;20030;-66
2023/03/23 12:44:13;;;;;;;0.30;0.10;;;;;;;17.66;52.61;99519.56;12960664;23;20055;-65
2023/03/23 12:49:18;;;;;;;0.70;0.30;;;;;;;17.89;52.24;99524.94;12920558;23;20043;-67
2023/03/23 12:54:32;;;;;;;1.02;0.13;;;;;;;17.94;51.95;99514.13;12907389;23;20024;-67
2023/03/23 13:00:02;;;;;;;1.88;0.17;;;;;;;17.98;52.22;99501.69;12898464;23;20028;-68
2023/03/23 13:05:08;;;;;;;0.43;0.40;;;;;;;17.95;51.94;99525.81;12931498;23;20031;-66
2023/03/23 13:10:27;;;;;;;0.30;0.17;;;;;;;17.75;52.23;99551.56;12893337;23;20039;-63
2023/03/23 13:15:44;;;;;;;0.70;0.20;;;;;;;17.80;52.33;99513.56;12911317;23;20062;-65
2023/03/23 13:20:55;;;;;;;0.50;0.20;;;;;;;17.91;52.53;99513.78;12866777;22;20043;-67
2023/03/23 13:26:21;;;;;;;2.03;0.30;;;;;;;17.92;52.13;99516.28;12943414;22;20028;-70
2023/03/23 13:31:33;;;;;;;0.60;0.13;;;;;;;18.13;51.78;99513.91;12949653;23;20031;-62
2023/03/23 13:36:37;;;;;;;1.00;0.63;;;;;;;18.18;51.75;99512.06;12909218;23;20141;-64
2023/03/23 13:41:59;;;;;;;0.88;0.15;;;;;;;18.47;51.17;99503.03;12938611;23;20028;-65
2023/03/23 13:47:26;;;;;;;1.25;0.10;;;;;;;18.68;50.80;99506.84;12882702;23;20024;-65
2023/03/23 13:52:45;;;;;;;0.40;0.10;;;;;;;18.67;50.58;99500.59;12912607;23;20020;-64
2023/03/23 13:58:02;;;;;;;0.20;0.20;;;;;;;18.99;49.78;99489.88;12918795;23;20031;-64
2023/03/23 14:03:05;;;;;;;0.57;0.20;;;;;;;19.24;49.45;99487.75;12883133;23;20089;-62
2023/03/23 14:08:11;;;;;;;0.73;0.20;;;;;;;19.30;48.89;99492.19;12907253;23;20034;-64
2023/03/23 14:13:29;;;;;;;0.33;0.20;;;;;;;19.06;49.18;99489.72;12910186;23;20031;-66
2023/03/23 14:18:38;;;;;;;1.58;0.20;;;;;;;19.21;49.22;99486.34;12904777;23;20135;-64
2023/03/23 14:23:39;;;;;;;0.70;0.22;;;;;;;19.09;49.65;99491.09;12904700;23;20036;-66
2023/03/23 14:28:43;;;;;;;0.90;0.45;;;;;;;19.01;49.77;99487.72;12931529;23;20385;-62
2023/03/23 14:33:43;;;;;;;0.43;0.20;;;;;;;18.70;50.56;99502.84;12896244;23;20298;-70
2023/03/23 14:38:44;;;;;;;1.95;0.20;;;;;;;18.42;51.24;99496.44;12856346;23;20036;-69
2023/03/23 14:43:45;;;;;;;2.47;0.95;;;;;;;18.25;51.55;99503.78;12915612;23;20457;-66
2023/03/23 14:48:46;;;;;;;1.55;0.30;;;;;;;18.16;51.89;99506.06;12857196;23;20024;-67
2023/03/23 14:53:50;;;;;;;1.25;0.20;;;;;;;17.95;51.88;99514.94;12869918;23;20051;-68
2023/03/23 14:58:52;;;;;;;0.85;0.17;;;;;;;17.94;51.88;99510.59;12870107;23;20024;-67
2023/03/23 15:04:19;;;;;;;0.88;0.20;;;;;;;18.06;51.65;99503.19;12869786;23;20020;-68
2023/03/23 15:09:23;;;;;;;3.50;0.20;;;;;;;18.11;51.60;99495.13;12869934;23;20457;-69
2023/03/23 15:14:30;;;;;;;1.50;0.20;;;;;;;18.31;51.34;99491.09;12872326;23;20081;-69
2023/03/23 15:19:40;;;;;;;1.35;0.40;;;;;;;18.50;51.22;99484.28;12900594;22;20020;-69
2023/03/23 15:24:41;;;;;;;0.88;0.20;;;;;;;18.56;51.08;99496.06;12886415;23;20055;-70
2023/03/23 15:29:52;;;;;;;0.50;0.40;;;;;;;18.46;51.25;99493.19;12854538;23;20016;-70
2023/03/23 15:34:54;;;;;;;0.55;0.20;;;;;;;18.41;50.94;99500.22;12878235;23;20110;-69
2023/03/23 15:39:56;;;;;;;0.55;0.20;;;;;;;18.36;50.97;99504.75;12852822;23;20052;-68
2023/03/23 15:45:15;;;;;;;0.70;0.20;;;;;;;18.33;50.88;99499.81;12857331;23;20028;-68
2023/03/23 15:50:19;;;;;;;1.65;0.40;;;;;;;18.21;51.00;99495.28;12882102;23;20077;-69
2023/03/23 15:55:24;;;;;;;0.98;0.30;;;;;;;18.13;51.17;99500.31;12882414;23;20370;-68
2023/03/23 16:00:26;;;;;;;0.50;0.20;;;;;;;18.08;50.84;99497.50;12856531;23;20611;-68
2023/03/23 16:05:28;;;;;;;0.95;0.43;;;;;;;17.92;51.27;99512.72;12911166;23;20028;-68
2023/03/23 16:10:29;;;;;;;0.82;0.55;;;;;;;17.93;51.10;99522.53;12882940;23;20031;-68
2023/03/23 16:15:31;;;;;;;3.33;0.30;;;;;;;17.73;51.97;99512.91;12892856;23;20020;-68
2023/03/23 16:20:32;;;;;;;1.98;0.77;;;;;;;17.69;51.74;99510.91;12909182;22;20028;-67
2023/03/23 16:25:36;;;;;;;0.50;0.13;;;;;;;17.75;51.98;99513.50;12879872;23;20094;-68
2023/03/23 16:30:42;;;;;;;3.08;0.20;;;;;;;17.57;53.17;99511.78;12912228;23;20032;-68
2023/03/23 16:35:43;;;;;;;0.70;0.20;;;;;;;17.54;53.15;99516.91;12887379;23;20020;-67
2023/03/23 16:40:46;;;;;;;2.05;0.20;;;;;;;17.37;53.97;99512.22;12906635;23;20024;-69
2023/03/23 16:45:47;;;;;;;1.55;0.50;;;;;;;17.29;54.45;99520.75;12908331;23;20024;-69
2023/03/23 16:50:50;;;;;;;0.57;0.30;;;;;;;17.21;54.84;99513.81;12883629;23;20457;-69
2023/03/23 16:55:52;;;;;;;0.88;0.40;;;;;;;17.08;56.01;99515.97;12911857;23;20032;-68
2023/03/23 17:00:59;;;;;;;0.57;0.30;;;;;;;16.83;56.92;99509.75;12909997;23;20409;-70
2023/03/23 17:06:01;;;;;;;0.77;0.30;;;;;;;16.72;57.41;99507.81;12909668;23;20016;-69
2023/03/23 17:11:03;;;;;;;3.22;0.40;;;;;;;16.65;57.62;99499.00;12911341;23;20024;-70
2023/03/23 17:16:05;;;;;;;0.65;0.30;;;;;;;16.49;58.26;99492.41;12882657;23;20085;-69
2023/03/23 17:21:06;;;;;;;1.98;0.35;;;;;;;16.45;58.77;99497.47;12907483;22;20082;-68
2023/03/23 17:26:07;;;;;;;1.20;0.52;;;;;;;16.36;58.66;99492.63;12884314;23;20335;-70
2023/03/23 17:31:09;;;;;;;1.08;0.65;;;;;;;16.22;59.37;99497.44;12882633;23;20055;-68
2023/03/23 17:36:10;;;;;;;2.67;0.60;;;;;;;16.12;59.69;99494.50;12907403;23;20025;-69
2023/03/23 17:41:12;;;;;;;1.90;0.60;;;;;;;16.06;59.86;99507.09;12908009;23;20024;-69
2023/03/23 17:46:14;;;;;;;1.10;0.40;;;;;;;16.09;59.91;99505.78;12909953;23;20074;-71
2023/03/23 17:51:15;;;;;;;1.83;0.50;;;;;;;16.04;60.21;99506.50;12882857;23;20028;-69
2023/03/23 17:56:17;;;;;;;0.95;0.50;;;;;;;16.06;60.11;99515.22;12882566;23;20382;-70
2023/03/23 18:01:18;;;;;;;1.27;0.40;;;;;;;16.01;60.10;99510.47;12909407;23;20085;-69
2023/03/23 18:06:20;;;;;;;1.67;0.40;;;;;;;16.01;59.94;99518.63;12904619;22;20032;-92
2023/03/23 18:11:29;;;;;;;2.13;0.52;;;;;;;16.03;59.85;99519.25;12906326;22;20032;-92
2023/03/23 18:16:32;;;;;;;0.75;0.40;;;;;;;15.99;59.86;99522.63;12925663;22;20024;-92
2023/03/23 18:22:03;;;;;;;2.15;0.75;;;;;;;15.98;60.00;99519.09;12838760;22;20031;31
2023/03/23 18:27:04;;;;;;;2.13;0.50;;;;;;;15.97;60.05;99519.31;12914739;22;20020;-73
2023/03/23 18:32:06;;;;;;;2.40;0.40;;;;;;;15.99;59.76;99515.31;12976351;22;20028;-71
2023/03/23 18:37:09;;;;;;;2.35;0.52;;;;;;;16.06;59.54;99507.91;13002496;22;20023;-71
2023/03/23 18:42:11;;;;;;;1.30;0.50;;;;;;;16.05;59.52;99503.56;12988301;22;20031;-69
2023/03/23 18:47:12;;;;;;;3.58;0.45;;;;;;;16.04;59.31;99506.50;12994850;22;20077;-73
2023/03/23 18:52:13;;;;;;;1.10;0.68;;;;;;;15.94;59.85;99507.06;12983119;22;20016;-67
2023/03/23 18:57:16;;;;;;;2.53;0.63;;;;;;;15.90;59.63;99514.00;12920348;22;20474;-69
2023/03/23 19:02:19;;;;;;;2.72;1.08;;;;;;;15.84;59.91;99504.09;12902524;22;20073;-72
2023/03/23 19:07:20;;;;;;;2.58;1.00;;;;;;;15.84;59.88;99515.75;12932085;22;20205;-74
2023/03/23 19:17:38;;;;;;;3.28;0.50;;;;;;;15.78;59.62;99515.88;12895883;22;20000;-77
2023/03/23 19:22:40;;;;;;;2.60;0.60;;;;;;;15.79;59.68;99518.31;12998341;22;20019;-70
2023/03/23 19:27:42;;;;;;;1.85;0.68;;;;;;;15.77;60.28;99515.03;12971325;22;20519;-74
2023/03/23 19:33:03;;;;;;;1.70;0.60;;;;;;;15.76;60.07;99499.84;12970268;22;20024;-75
2023/03/23 19:38:05;;;;;;;2.35;0.40;;;;;;;15.77;60.27;99496.06;12909405;22;20027;-75
2023/03/23 19:43:07;;;;;;;1.38;0.63;;;;;;;15.83;60.12;99497.00;12909805;23;20325;-72
2023/03/23 19:48:08;;;;;;;3.65;0.45;;;;;;;15.88;60.33;99489.03;12910613;23;20024;-74
2023/03/23 19:53:12;;;;;;;1.17;0.60;;;;;;;15.94;59.99;99488.09;12911654;23;20082;-75
2023/03/23 19:58:14;;;;;;;0.85;0.40;;;;;;;15.96;60.09;99479.75;12916788;23;20028;-72
2023/03/23 20:03:16;;;;;;;1.23;0.73;;;;;;;16.01;60.28;99477.94;12920580;22;20023;-75
2023/03/23 20:08:18;;;;;;;2.58;0.88;;;;;;;16.12;59.93;99468.19;12973446;22;20522;-72
2023/03/23 20:13:20;;;;;;;3.08;0.50;;;;;;;16.09;59.92;99465.13;12947847;22;20027;-78
2023/03/23 20:18:21;;;;;;;1.00;0.60;;;;;;;16.12;60.18;99449.22;12948009;22;20020;-74
2023/03/23 20:23:23;;;;;;;1.52;0.55;;;;;;;16.14;60.18;99455.22;12945890;22;20027;-73
2023/03/23 20:28:25;;;;;;;1.08;0.50;;;;;;;16.22;59.83;99456.78;12945182;22;20028;-75
2023/03/23 20:33:29;;;;;;;2.60;0.70;;;;;;;16.25;59.97;99456.28;12944947;22;20031;-72
2023/03/23 20:38:34;;;;;;;2.78;0.70;;;;;;;16.35;59.80;99436.72;12947171;22;20027;-74
2023/03/23 20:43:36;;;;;;;4.07;0.70;;;;;;;16.32;59.89;99427.19;12919596;22;20019;-76
2023/03/23 20:48:39;;;;;;;1.42;0.60;;;;;;;16.33;60.18;99422.56;12983124;22;20020;-76
2023/03/23 20:53:40;;;;;;;1.35;0.50;;;;;;;16.31;59.77;99422.81;12946511;22;20464;-75
2023/03/23 20:58:42;;;;;;;1.65;0.70;;;;;;;16.28;60.28;99419.75;12952580;22;20020;-77
2023/03/23 21:03:44;;;;;;;2.03;0.50;;;;;;;16.35;60.13;99424.00;12920911;22;20035;-75
2023/03/23 21:08:45;;;;;;;2.80;0.68;;;;;;;16.40;59.91;99424.09;12919282;22;20024;-75
2023/03/23 21:13:48;;;;;;;1.33;0.60;;;;;;;16.32;60.22;99419.03;12915967;22;20559;-73
2023/03/23 21:18:49;;;;;;;2.10;0.80;;;;;;;16.32;60.39;99404.66;12923750;22;20342;-74
2023/03/23 21:23:52;;;;;;;0.93;0.60;;;;;;;16.25;60.36;99411.03;12923783;22;20058;-75
2023/03/23 21:28:58;;;;;;;1.40;0.60;;;;;;;16.20;60.44;99400.06;12978871;22;20024;-75
2023/03/23 21:34:01;;;;;;;;;;;;;;;16.21;60.30;99392.75;12925222;22;20032;-76
2023/03/23 21:39:04;;;;;;;0.95;0.50;;;;;;;16.16;60.47;99389.94;12921315;22;19990;-73
2023/03/23 21:44:09;;;;;;;1.33;0.60;;;;;;;16.15;60.67;99380.97;12978047;22;20032;-75
2023/03/23 21:49:13;;;;;;;0.98;0.70;;;;;;;16.17;60.96;99375.28;12947444;22;20395;-74
2023/03/23 21:54:20;;;;;;;4.20;1.13;;;;;;;16.17;60.76;99378.84;12962146;22;20023;-78
2023/03/23 21:59:22;;;;;;;2.80;0.70;;;;;;;16.06;61.33;99375.06;12977036;22;20066;-73
2023/03/23 22:04:24;;;;;;;2.08;0.73;;;;;;;16.09;61.23;99364.81;12977525;22;20085;-71
2023/03/23 22:09:25;;;;;;;2.10;0.90;;;;;;;16.01;61.38;99349.72;12947726;22;20024;-75
2023/03/23 22:14:27;;;;;;;1.45;0.93;;;;;;;16.02;61.55;99356.81;12975657;22;20019;-75
2023/03/23 22:19:28;;;;;;;1.45;1.02;;;;;;;15.96;61.86;99355.88;12953755;22;20019;-72
2023/03/23 22:24:30;;;;;;;1.70;0.85;;;;;;;15.98;61.65;99353.75;12976548;22;20077;-75
2023/03/23 22:29:33;;;;;;;2.20;1.25;;;;;;;16.01;61.58;99347.00;12939648;22;20024;-75
2023/03/23 22:34:36;;;;;;;2.05;1.30;;;;;;;15.98;61.86;99348.31;12924357;22;20134;-74
2023/03/23 22:39:38;;;;;;;2.80;1.10;;;;;;;15.98;61.57;99351.03;12932714;22;20058;-73
2023/03/23 22:44:42;;;;;;;2.72;1.52;;;;;;;15.91;61.95;99342.19;12912758;22;20036;-77
2023/03/23 22:49:51;;;;;;;2.60;1.30;;;;;;;15.90;62.16;99337.84;12973393;22;20020;-77
2023/03/23 22:54:53;;;;;;;1.83;1.15;;;;;;;15.80;62.40;99343.03;12950744;22;20031;-76
2023/03/23 22:59:55;;;;;;;5.05;1.70;;;;;;;15.80;62.56;99329.47;12947922;22;20031;-78
2023/03/23 23:04:57;;;;;;;4.50;1.90;;;;;;;15.70;62.77;99313.78;12975544;22;20019;-77
2023/03/23 23:09:59;;;;;;;3.35;1.70;;;;;;;15.43;63.84;99306.09;12941605;22;20035;-73
2023/03/23 23:15:03;;;;;;;3.53;1.95;;;;;;;15.21;64.70;99299.59;12947614;22;20023;-75
2023/03/23 23:20:11;;;;;;;5.38;2.58;;;;;;;15.20;64.58;99298.75;12952446;22;20058;-75
2023/03/23 23:25:15;;;;;;;7.53;2.50;;;;;;;15.08;65.30;99304.13;12947622;22;20023;-73
2023/03/23 23:30:17;;;;;;;3.50;2.92;;;;;;;14.81;66.45;99295.59;12923053;22;20024;-72
2023/03/23 23:35:20;;;;;;;7.13;3.60;;;;;;;14.47;67.79;99302.44;12976542;22;20031;-71
2023/03/23 23:40:21;;;;;;;5.68;3.47;;;;;;;14.38;68.22;99299.25;12972461;22;20024;-73
2023/03/23 23:45:23;;;;;;;6.53;4.18;;;;;;;14.29;68.71;99270.84;12948035;22;20019;-70
2023/03/23 23:50:25;;;;;;;5.90;3.95;;;;;;;14.17;69.47;99267.25;12972909;22;20077;-70
2023/03/23 23:55:26;;;;;;;8.15;3.33;;;;;;;14.18;69.75;99274.31;12972688;22;20023;-74
